Terminal Aerodrome Forecast
Issued by NWS

Home | Current Version | Previous Version | Text Only | Print | Product List | Glossary On
Versions: 1 2 3 4 5 6 7 8 9 10 11 12 13 14 15 16 17 18 19 20 21 22 23 24 25 26 27 28 29 30 31 32 33 34 35 36 37 38 39 40 41 42 43 44 45
000
FTUS45 KSLC 231852 AAA
TAFOGD
TAF AMD
KOGD 231852Z 2319/2418 26010G17KT P6SM VCSH BKN035 BKN050
      TEMPO 2319/2323 5SM -SHSN BR BKN025 OVC030
     FM232300 29007KT P6SM -SHSN BKN025 OVC050
     FM240300 21007KT P6SM VCSH SCT020 BKN035
     FM241300 25006KT 5SM -SHSN BR BKN020 OVC035=

USA.gov is the U.S. government's official web portal to all federal, state and local government web resources and services.